createdAt,value
2019-03-29T00:01:59.919Z,26.67
2019-03-29T00:04:27.510Z,25.70
2019-03-29T00:06:55.100Z,23.07
2019-03-29T00:09:22.778Z,27.33
2019-03-29T00:12:13.207Z,28.93
2019-03-29T00:14:41.977Z,26.50
2019-03-29T00:17:09.838Z,37.90
2019-03-29T00:19:38.541Z,35.67
2019-03-29T00:22:06.163Z,32.13
2019-03-29T00:24:34.104Z,33.53
2019-03-29T00:27:01.722Z,36.83
2019-03-29T00:29:29.994Z,36.57
2019-03-29T00:31:57.727Z,37.80
2019-03-29T00:34:25.359Z,41.33
2019-03-29T00:36:52.936Z,33.27
2019-03-29T00:39:20.552Z,38.90
2019-03-29T00:41:48.210Z,28.60
2019-03-29T00:44:15.800Z,32.07
2019-03-29T00:46:43.418Z,33.03
2019-03-29T00:49:11.009Z,38.37
2019-03-29T00:51:38.765Z,34.67
2019-03-29T00:54:06.406Z,33.00
2019-03-29T00:56:33.984Z,35.60
2019-03-29T00:59:01.599Z,31.57
2019-03-29T01:01:29.276Z,25.80
2019-03-29T01:03:58.056Z,30.03
2019-03-29T01:06:25.665Z,27.37
2019-03-29T01:08:53.284Z,32.10
2019-03-29T01:11:20.959Z,28.67
2019-03-29T01:13:48.545Z,30.40
2019-03-29T01:16:16.146Z,30.57
2019-03-29T01:18:43.752Z,27.60
2019-03-29T01:21:11.329Z,27.83
2019-03-29T01:23:39.083Z,29.30
2019-03-29T01:26:06.761Z,30.03
2019-03-29T01:28:46.955Z,35.20
2019-03-29T01:31:15.145Z,28.97
2019-03-29T01:34:01.975Z,34.93
2019-03-29T01:36:29.625Z,32.17
2019-03-29T01:38:58.434Z,25.50
2019-03-29T01:41:27.128Z,41.07
2019-03-29T01:43:54.994Z,31.90
2019-03-29T01:46:22.589Z,32.30
2019-03-29T01:48:50.178Z,30.77
2019-03-29T01:51:17.823Z,34.10
2019-03-29T01:53:45.418Z,37.57
2019-03-29T01:56:13.009Z,43.00
2019-03-29T01:58:40.608Z,50.87
2019-03-29T02:01:08.190Z,45.43
2019-03-29T02:03:35.896Z,32.43
2019-03-29T02:06:06.330Z,39.67
2019-03-29T02:08:36.003Z,35.33
2019-03-29T02:11:03.541Z,32.00
2019-03-29T02:13:31.190Z,38.87
2019-03-29T02:15:58.878Z,39.80
2019-03-29T02:18:26.482Z,50.20
2019-03-29T02:20:54.115Z,44.33
2019-03-29T02:23:21.705Z,43.30
2019-03-29T02:25:49.300Z,43.10
2019-03-29T02:28:16.900Z,48.80
2019-03-29T02:30:44.524Z,39.97
2019-03-29T02:33:12.191Z,38.07
2019-03-29T02:35:40.046Z,42.67
2019-03-29T02:38:07.638Z,42.57
2019-03-29T02:40:35.463Z,46.90
2019-03-29T02:43:03.067Z,41.57
2019-03-29T02:45:31.105Z,48.53
2019-03-29T02:47:58.758Z,44.40
2019-03-29T02:50:26.334Z,49.50
2019-03-29T02:52:54.028Z,49.17
2019-03-29T02:55:21.659Z,51.40
2019-03-29T02:57:49.250Z,52.37
2019-03-29T03:00:17.241Z,42.67
2019-03-29T03:02:44.848Z,47.23
2019-03-29T03:05:12.637Z,38.47
2019-03-29T03:07:40.221Z,42.53
2019-03-29T03:10:10.121Z,50.63
2019-03-29T03:12:37.795Z,54.70
2019-03-29T03:15:06.594Z,56.13
2019-03-29T03:17:34.234Z,54.53
2019-03-29T03:20:01.858Z,33.77
2019-03-29T03:22:29.430Z,39.10
2019-03-29T03:24:57.122Z,40.43
2019-03-29T03:27:24.815Z,77.13
2019-03-29T03:29:52.383Z,65.60
2019-03-29T03:32:20.037Z,90.13
2019-03-29T03:34:47.739Z,69.13
2019-03-29T03:37:15.303Z,83.00
2019-03-29T03:39:42.879Z,72.07
2019-03-29T03:42:10.496Z,82.43
2019-03-29T03:44:38.105Z,79.83
2019-03-29T03:47:05.693Z,68.93
2019-03-29T03:49:33.303Z,71.03
2019-03-29T03:52:00.994Z,61.70
2019-03-29T03:54:28.707Z,75.30
2019-03-29T03:56:56.684Z,75.17
2019-03-29T03:59:25.144Z,68.17
2019-03-29T04:01:52.721Z,72.60
2019-03-29T04:04:20.338Z,55.27
2019-03-29T04:06:47.974Z,60.80
2019-03-29T04:09:15.545Z,78.33
2019-03-29T04:11:43.118Z,70.43
2019-03-29T04:14:10.746Z,66.07
2019-03-29T04:16:38.316Z,60.27
2019-03-29T04:19:05.900Z,57.10
2019-03-29T04:21:33.561Z,50.83
2019-03-29T04:24:01.107Z,62.70
2019-03-29T04:26:28.723Z,61.00
2019-03-29T04:29:04.113Z,63.60
2019-03-29T04:31:25.830Z,67.90
2019-03-29T04:33:53.429Z,57.80
2019-03-29T04:36:21.139Z,63.20
2019-03-29T04:38:48.810Z,59.60
2019-03-29T04:41:16.368Z,62.70
2019-03-29T04:44:02.646Z,49.40
2019-03-29T04:46:30.223Z,52.37
2019-03-29T04:49:17.933Z,57.97
2019-03-29T04:51:45.681Z,55.53
2019-03-29T04:54:13.278Z,47.00
2019-03-29T04:56:40.887Z,50.03
2019-03-29T04:59:08.463Z,51.13
2019-03-29T05:01:36.146Z,46.53
2019-03-29T05:04:03.738Z,52.50
2019-03-29T05:06:31.429Z,44.00
2019-03-29T05:09:07.163Z,46.00
2019-03-29T05:11:34.742Z,52.10
2019-03-29T05:14:02.325Z,58.37
2019-03-29T05:16:29.942Z,59.07
2019-03-29T05:18:57.521Z,60.13
2019-03-29T05:21:25.168Z,66.67
2019-03-29T05:23:52.784Z,67.97
2019-03-29T05:26:20.382Z,53.50
2019-03-29T05:28:47.944Z,48.90
2019-03-29T05:31:15.560Z,53.23
2019-03-29T05:33:43.167Z,42.23
2019-03-29T05:36:10.816Z,41.13
2019-03-29T05:38:38.502Z,51.63
2019-03-29T05:41:06.109Z,58.23
2019-03-29T05:43:33.705Z,53.27
2019-03-29T05:46:01.294Z,56.30
2019-03-29T05:48:28.912Z,57.07
2019-03-29T05:50:56.510Z,51.63
2019-03-29T05:53:24.187Z,53.50
2019-03-29T05:55:51.812Z,64.17
2019-03-29T05:58:19.422Z,58.23
2019-03-29T06:00:47.035Z,75.13
2019-03-29T06:03:14.715Z,81.97
2019-03-29T06:05:42.291Z,69.33
2019-03-29T06:08:09.874Z,75.50
2019-03-29T06:10:48.317Z,71.50
2019-03-29T06:13:07.975Z,53.03
2019-03-29T06:15:35.589Z,68.20
2019-03-29T06:18:03.524Z,79.53
2019-03-29T06:20:31.115Z,89.90
2019-03-29T06:22:58.703Z,84.00
2019-03-29T06:25:26.345Z,64.40
2019-03-29T06:27:53.972Z,152.67
2019-03-29T06:30:32.934Z,166.33
2019-03-29T06:33:00.588Z,178.37
2019-03-29T06:35:32.471Z,164.33
2019-03-29T06:38:02.097Z,154.83
2019-03-29T06:40:29.784Z,130.33
2019-03-29T06:42:57.383Z,116.60
2019-03-29T06:45:25.023Z,128.97
2019-03-29T06:47:52.700Z,116.13
2019-03-29T06:50:20.296Z,114.77
2019-03-29T06:52:47.903Z,111.73
2019-03-29T06:55:15.497Z,129.83
2019-03-29T06:57:43.094Z,108.90
2019-03-29T07:00:10.854Z,105.97
2019-03-29T07:02:38.454Z,101.47
2019-03-29T07:05:06.482Z,106.83
2019-03-29T07:07:34.100Z,92.73
2019-03-29T07:10:01.730Z,95.53
2019-03-29T07:12:29.386Z,92.47
2019-03-29T07:15:17.096Z,92.97
2019-03-29T07:17:44.875Z,89.57
2019-03-29T07:20:12.537Z,83.60
2019-03-29T07:22:40.148Z,80.83
2019-03-29T07:25:07.967Z,80.80
2019-03-29T07:27:44.704Z,82.63
2019-03-29T07:30:06.374Z,79.53
2019-03-29T07:32:34.111Z,73.37
2019-03-29T07:35:01.771Z,64.93
2019-03-29T07:37:29.350Z,65.13
2019-03-29T07:39:57.863Z,72.30
2019-03-29T07:42:25.500Z,66.67
2019-03-29T07:44:53.124Z,64.07
2019-03-29T07:47:20.918Z,63.00
2019-03-29T07:49:48.727Z,69.10
2019-03-29T07:52:16.319Z,65.37
2019-03-29T07:54:43.911Z,59.80
2019-03-29T07:57:11.533Z,56.77
2019-03-29T07:59:39.143Z,49.67
2019-03-29T08:02:06.755Z,54.60
2019-03-29T08:04:34.393Z,53.07
2019-03-29T08:07:02.068Z,52.27
2019-03-29T08:09:29.861Z,55.83
2019-03-29T08:11:57.598Z,44.13
2019-03-29T08:14:25.197Z,48.20
2019-03-29T08:16:52.800Z,57.30
2019-03-29T08:19:20.535Z,47.50
2019-03-29T08:21:48.136Z,54.47
2019-03-29T08:24:15.720Z,45.20
2019-03-29T08:26:43.355Z,45.20
2019-03-29T08:29:10.973Z,42.20
2019-03-29T08:31:38.689Z,49.83
2019-03-29T08:34:06.344Z,45.30
2019-03-29T08:36:33.944Z,44.93
2019-03-29T08:39:01.525Z,43.10
2019-03-29T08:41:29.152Z,42.33
2019-03-29T08:43:56.946Z,50.23
2019-03-29T08:46:24.571Z,42.40
2019-03-29T08:48:52.226Z,45.53
2019-03-29T08:51:19.825Z,48.13
2019-03-29T08:53:47.410Z,43.00
2019-03-29T08:56:15.053Z,47.27
2019-03-29T08:58:42.627Z,49.87
2019-03-29T09:01:10.203Z,41.43
2019-03-29T09:03:37.951Z,48.93
2019-03-29T09:06:05.991Z,42.97
2019-03-29T09:08:33.585Z,43.70
2019-03-29T09:11:01.225Z,39.33
2019-03-29T09:13:33.594Z,39.37
2019-03-29T09:16:07.367Z,39.23
2019-03-29T09:18:35.057Z,35.50
2019-03-29T09:21:02.788Z,37.07
2019-03-29T09:23:30.628Z,38.37
2019-03-29T09:25:58.236Z,41.80
2019-03-29T09:28:26.951Z,29.53
2019-03-29T09:30:56.478Z,35.87
2019-03-29T09:33:24.189Z,41.27
2019-03-29T09:35:53.987Z,42.93
2019-03-29T09:38:21.640Z,36.77
2019-03-29T09:40:58.677Z,37.63
2019-03-29T09:43:26.819Z,42.00
2019-03-29T09:45:54.500Z,33.53
2019-03-29T09:48:22.109Z,36.07
2019-03-29T09:50:50.922Z,36.57
2019-03-29T09:53:18.742Z,31.40
2019-03-29T09:55:46.410Z,31.40
2019-03-29T09:58:16.575Z,51.67
2019-03-29T10:00:43.547Z,29.77
2019-03-29T10:03:11.136Z,28.73
2019-03-29T10:05:38.765Z,31.77
2019-03-29T10:08:06.362Z,28.93
2019-03-29T10:10:34.740Z,23.93
2019-03-29T10:13:02.507Z,23.57
2019-03-29T10:15:30.139Z,26.67
2019-03-29T10:17:57.709Z,26.97
2019-03-29T10:20:25.441Z,20.77
2019-03-29T10:22:53.123Z,22.17
2019-03-29T10:25:20.693Z,20.07
2019-03-29T10:27:48.319Z,18.73
2019-03-29T10:30:38.147Z,17.33
2019-03-29T10:33:05.911Z,18.23
2019-03-29T10:35:33.681Z,18.80
2019-03-29T10:38:03.760Z,23.10
2019-03-29T10:40:31.409Z,18.00
2019-03-29T10:42:59.028Z,19.97
2019-03-29T10:45:26.715Z,18.10
2019-03-29T10:47:54.459Z,16.67
2019-03-29T10:51:04.213Z,15.47
2019-03-29T10:53:31.812Z,15.40
2019-03-29T10:55:59.504Z,23.20
2019-03-29T10:58:27.126Z,21.00
2019-03-29T11:00:54.719Z,15.47
2019-03-29T11:03:22.304Z,14.43
2019-03-29T11:05:49.953Z,12.97
2019-03-29T11:08:17.624Z,13.03
2019-03-29T11:10:45.492Z,18.97
2019-03-29T11:13:14.373Z,10.93
2019-03-29T11:15:42.299Z,12.30
2019-03-29T11:18:09.921Z,15.37
2019-03-29T11:20:37.532Z,13.20
2019-03-29T11:23:05.259Z,10.73
2019-03-29T11:25:32.857Z,11.60
2019-03-29T11:28:00.487Z,14.20
2019-03-29T11:30:41.451Z,13.50
2019-03-29T11:32:57.690Z,11.83
2019-03-29T11:35:25.326Z,10.93
2019-03-29T11:37:52.966Z,13.53
2019-03-29T11:40:20.997Z,9.40
2019-03-29T11:42:48.592Z,11.57
2019-03-29T11:45:16.194Z,11.70
2019-03-29T11:47:43.801Z,11.83
2019-03-29T11:50:11.664Z,11.70
2019-03-29T11:52:39.245Z,11.10
2019-03-29T11:55:06.960Z,11.40
2019-03-29T11:57:34.580Z,10.73
2019-03-29T12:00:02.192Z,20.83
2019-03-29T12:02:31.492Z,13.00
2019-03-29T12:04:59.321Z,12.70
2019-03-29T12:07:27.107Z,17.03
2019-03-29T12:09:54.699Z,17.40
2019-03-29T12:12:22.543Z,15.10
2019-03-29T12:14:50.216Z,14.90
2019-03-29T12:17:17.811Z,14.17
2019-03-29T12:19:45.436Z,13.40
2019-03-29T12:22:13.059Z,19.47
2019-03-29T12:24:40.702Z,15.13
2019-03-29T12:27:08.346Z,14.70
2019-03-29T12:29:35.989Z,16.23
2019-03-29T12:32:03.979Z,12.50
2019-03-29T12:34:31.606Z,11.80
2019-03-29T12:36:59.229Z,14.37
2019-03-29T12:39:26.799Z,12.00
2019-03-29T12:41:54.650Z,13.50
2019-03-29T12:44:22.262Z,13.43
2019-03-29T12:46:49.943Z,11.27
2019-03-29T12:49:17.745Z,11.63
2019-03-29T12:51:47.014Z,9.60
2019-03-29T12:54:15.001Z,9.57
2019-03-29T12:56:42.680Z,9.23
2019-03-29T12:59:10.284Z,10.80
2019-03-29T13:01:39.857Z,11.57
2019-03-29T13:04:09.710Z,10.80
2019-03-29T13:06:36.857Z,11.37
2019-03-29T13:09:06.297Z,10.93
2019-03-29T13:11:33.945Z,18.83
2019-03-29T13:14:10.035Z,11.40
2019-03-29T13:16:31.107Z,10.77
2019-03-29T13:18:58.783Z,11.93
2019-03-29T13:21:26.365Z,12.97
2019-03-29T13:23:53.947Z,13.13
2019-03-29T13:26:21.571Z,12.30
2019-03-29T13:28:49.189Z,11.40
2019-03-29T13:31:16.779Z,11.10
2019-03-29T13:33:44.461Z,13.20
2019-03-29T13:36:12.103Z,27.57
2019-03-29T13:38:40.146Z,9.67
2019-03-29T13:41:07.784Z,11.77
2019-03-29T13:43:35.370Z,11.00
2019-03-29T13:46:02.963Z,10.63
2019-03-29T13:48:30.595Z,11.97
2019-03-29T13:50:59.642Z,11.93
2019-03-29T13:53:27.585Z,9.47
2019-03-29T13:55:55.330Z,8.40
2019-03-29T13:58:22.921Z,8.43
2019-03-29T14:00:50.597Z,7.57
2019-03-29T14:03:18.191Z,7.23
2019-03-29T14:05:45.805Z,7.30
2019-03-29T14:08:13.448Z,9.87
2019-03-29T14:10:41.042Z,8.97
2019-03-29T14:13:08.666Z,8.77
2019-03-29T14:15:36.308Z,9.27
2019-03-29T14:18:03.939Z,11.37
2019-03-29T14:20:33.128Z,9.23
2019-03-29T14:23:01.835Z,8.83
2019-03-29T14:25:29.441Z,7.07
2019-03-29T14:27:57.022Z,9.67
2019-03-29T14:30:24.628Z,9.63
2019-03-29T14:32:52.336Z,13.67
2019-03-29T14:35:19.950Z,8.53
2019-03-29T14:37:47.659Z,9.77
2019-03-29T14:40:15.530Z,12.07
2019-03-29T14:42:43.124Z,15.17
2019-03-29T14:45:11.161Z,12.60
2019-03-29T14:47:43.321Z,18.47
2019-03-29T14:50:10.688Z,12.37
2019-03-29T14:52:38.807Z,27.77
2019-03-29T14:55:06.961Z,17.53
2019-03-29T14:57:34.650Z,14.73
2019-03-29T15:00:02.315Z,12.87
2019-03-29T15:02:29.925Z,16.20
2019-03-29T15:04:57.651Z,18.67
2019-03-29T15:07:25.265Z,14.13
2019-03-29T15:09:54.167Z,21.73
2019-03-29T15:12:21.752Z,11.80
2019-03-29T15:14:49.400Z,11.43
2019-03-29T15:17:17.013Z,11.67
2019-03-29T15:19:44.689Z,11.37
2019-03-29T15:22:12.263Z,11.17
2019-03-29T15:24:39.875Z,14.60
2019-03-29T15:27:07.452Z,11.90
2019-03-29T15:29:35.080Z,10.87
2019-03-29T15:32:02.688Z,13.80
2019-03-29T15:34:30.282Z,13.57
2019-03-29T15:36:57.922Z,10.90
2019-03-29T15:39:25.696Z,12.47
2019-03-29T15:41:53.304Z,11.53
2019-03-29T15:44:20.910Z,11.10
2019-03-29T15:46:48.536Z,13.50
2019-03-29T15:49:16.237Z,34.10
2019-03-29T15:51:43.885Z,12.43
2019-03-29T15:54:11.578Z,15.60
2019-03-29T15:56:39.180Z,10.60
2019-03-29T15:59:06.758Z,11.00
2019-03-29T16:01:34.384Z,11.33
2019-03-29T16:04:02.142Z,10.97
2019-03-29T16:06:29.816Z,11.80
2019-03-29T16:08:57.564Z,22.10
2019-03-29T16:11:25.307Z,13.03
2019-03-29T16:13:52.899Z,11.13
2019-03-29T16:16:20.718Z,11.00
2019-03-29T16:18:48.305Z,11.57
2019-03-29T16:21:15.918Z,11.20
2019-03-29T16:23:43.555Z,11.77
2019-03-29T16:26:11.165Z,14.73
2019-03-29T16:28:38.746Z,10.80
2019-03-29T16:31:06.412Z,11.00
2019-03-29T16:33:34.019Z,10.37
2019-03-29T16:36:01.704Z,13.03
2019-03-29T16:38:29.359Z,13.97
2019-03-29T16:40:56.969Z,11.33
2019-03-29T16:43:24.628Z,11.60
2019-03-29T16:46:28.521Z,11.37
2019-03-29T16:48:56.307Z,10.00
2019-03-29T16:51:23.910Z,11.33
2019-03-29T16:53:51.546Z,10.67
2019-03-29T16:56:19.226Z,10.87
2019-03-29T16:58:46.939Z,11.30
2019-03-29T17:01:14.688Z,9.93
2019-03-29T17:03:42.321Z,10.73
2019-03-29T17:06:09.975Z,10.33
2019-03-29T17:08:37.584Z,10.67
2019-03-29T17:11:05.238Z,11.20
2019-03-29T17:13:32.827Z,10.17
2019-03-29T17:16:01.990Z,10.13
2019-03-29T17:18:30.012Z,9.73
2019-03-29T17:20:57.854Z,11.13
2019-03-29T17:23:25.416Z,10.13
2019-03-29T17:25:53.035Z,14.43
2019-03-29T17:28:20.638Z,11.20
2019-03-29T17:31:36.932Z,10.90
2019-03-29T17:34:04.562Z,13.43
2019-03-29T17:36:32.243Z,12.50
2019-03-29T17:38:59.840Z,15.60
2019-03-29T17:41:27.427Z,12.70
2019-03-29T17:43:55.039Z,14.73
2019-03-29T17:46:22.639Z,14.43
2019-03-29T17:48:50.232Z,11.33
2019-03-29T17:51:17.864Z,16.33
2019-03-29T17:53:45.455Z,17.47
2019-03-29T17:56:13.078Z,14.97
2019-03-29T17:58:40.844Z,16.27
2019-03-29T18:01:08.446Z,16.60
2019-03-29T18:03:37.151Z,19.20
2019-03-29T18:06:04.790Z,17.37
2019-03-29T18:08:32.364Z,16.77
2019-03-29T18:11:00.004Z,13.10
2019-03-29T18:13:27.597Z,18.47
2019-03-29T18:15:55.253Z,22.53
2019-03-29T18:18:22.879Z,16.57
2019-03-29T18:20:50.571Z,16.13
2019-03-29T18:23:18.193Z,14.80
2019-03-29T18:25:45.913Z,17.00
2019-03-29T18:28:13.533Z,18.20
2019-03-29T18:30:43.177Z,16.80
2019-03-29T18:33:10.928Z,17.70
2019-03-29T18:35:42.966Z,17.87
2019-03-29T18:38:10.624Z,16.37
2019-03-29T18:40:38.283Z,13.60
2019-03-29T18:43:05.936Z,13.40
2019-03-29T18:45:33.673Z,15.77
2019-03-29T18:48:08.930Z,10.97
2019-03-29T18:50:37.247Z,15.53
2019-03-29T18:53:06.241Z,17.10
2019-03-29T18:55:33.968Z,20.53
2019-03-29T18:58:01.565Z,24.27
2019-03-29T19:00:33.090Z,16.00
2019-03-29T19:03:01.760Z,20.47
2019-03-29T19:05:29.859Z,16.27
2019-03-29T19:07:57.511Z,16.70
2019-03-29T19:10:25.260Z,18.43
2019-03-29T19:12:53.978Z,15.33
2019-03-29T19:15:23.157Z,13.37
2019-03-29T19:17:50.807Z,19.13
2019-03-29T19:20:27.395Z,15.77
2019-03-29T19:22:47.955Z,11.37
2019-03-29T19:25:15.666Z,18.97
2019-03-29T19:27:43.342Z,17.17
2019-03-29T19:30:12.430Z,17.07
2019-03-29T19:32:40.056Z,18.70
2019-03-29T19:35:07.869Z,15.33
2019-03-29T19:37:35.521Z,16.30
2019-03-29T19:40:03.561Z,16.43
2019-03-29T19:42:31.198Z,13.53
2019-03-29T19:44:59.222Z,16.10
2019-03-29T19:47:26.971Z,16.90
2019-03-29T19:49:55.494Z,16.07
2019-03-29T19:52:25.102Z,19.80
2019-03-29T19:54:52.833Z,20.57
2019-03-29T19:57:20.490Z,13.67
2019-03-29T19:59:48.804Z,19.27
2019-03-29T20:02:16.633Z,23.00
2019-03-29T20:04:44.231Z,24.70
2019-03-29T20:07:11.854Z,18.60
2019-03-29T20:09:42.040Z,19.70
2019-03-29T20:12:09.028Z,21.77
2019-03-29T20:14:36.672Z,13.60
2019-03-29T20:17:04.331Z,14.43
2019-03-29T20:19:32.173Z,14.73
2019-03-29T20:21:59.765Z,17.93
2019-03-29T20:24:27.419Z,19.53
2019-03-29T20:26:55.039Z,17.37
2019-03-29T20:29:22.633Z,19.07
2019-03-29T20:31:50.821Z,19.53
2019-03-29T20:34:18.829Z,19.63
2019-03-29T20:36:46.498Z,15.10
2019-03-29T20:39:14.199Z,17.23
2019-03-29T20:41:42.061Z,15.80
2019-03-29T20:44:09.647Z,17.03
2019-03-29T20:46:37.405Z,21.70
2019-03-29T20:49:05.198Z,27.93
2019-03-29T20:51:32.818Z,26.43
2019-03-29T20:54:00.601Z,22.77
2019-03-29T20:56:28.918Z,22.23
2019-03-29T20:58:56.735Z,23.93
2019-03-29T21:01:24.390Z,28.37
2019-03-29T21:03:52.023Z,29.43
2019-03-29T21:06:19.758Z,26.73
2019-03-29T21:08:47.629Z,22.23
2019-03-29T21:11:15.251Z,19.60
2019-03-29T21:13:43.055Z,20.70
2019-03-29T21:16:10.925Z,21.17
2019-03-29T21:18:38.540Z,20.17
2019-03-29T21:21:06.138Z,20.77
2019-03-29T21:23:33.797Z,20.57
2019-03-29T21:26:01.394Z,21.57
2019-03-29T21:28:28.982Z,18.80
2019-03-29T21:30:56.920Z,20.87
2019-03-29T21:33:24.510Z,23.17
2019-03-29T21:35:53.354Z,21.43
2019-03-29T21:38:21.083Z,18.73
2019-03-29T21:40:48.715Z,18.33
2019-03-29T21:43:16.355Z,18.27
2019-03-29T21:45:43.985Z,21.93
2019-03-29T21:48:27.983Z,21.83
2019-03-29T21:50:41.386Z,22.73
2019-03-29T21:53:09.101Z,23.27
2019-03-29T21:55:36.725Z,22.23
2019-03-29T21:58:04.404Z,18.37
2019-03-29T22:00:32.072Z,22.03
2019-03-29T22:02:59.732Z,20.67
2019-03-29T22:05:28.645Z,24.63
2019-03-29T22:07:56.276Z,22.53
2019-03-29T22:10:24.075Z,22.23
2019-03-29T22:12:51.671Z,17.07
2019-03-29T22:15:19.280Z,15.40
2019-03-29T22:17:47.227Z,22.07
2019-03-29T22:20:14.943Z,22.17
2019-03-29T22:22:42.584Z,23.00
2019-03-29T22:25:11.120Z,19.70
2019-03-29T22:27:38.726Z,20.23
2019-03-29T22:30:07.104Z,17.03
2019-03-29T22:32:34.771Z,15.17
2019-03-29T22:35:02.785Z,15.03
2019-03-29T22:37:30.385Z,19.83
2019-03-29T22:39:58.016Z,19.50
2019-03-29T22:42:25.667Z,21.03
2019-03-29T22:44:53.275Z,15.43
2019-03-29T22:47:20.879Z,17.83
2019-03-29T22:49:48.542Z,18.00
2019-03-29T22:52:16.169Z,18.00
2019-03-29T22:54:43.777Z,17.63
2019-03-29T22:57:11.416Z,28.50
2019-03-29T22:59:39.122Z,20.67
2019-03-29T23:02:07.031Z,17.10
2019-03-29T23:04:34.683Z,19.43
2019-03-29T23:07:02.431Z,19.77
2019-03-29T23:09:30.047Z,21.20
2019-03-29T23:11:57.680Z,20.03
2019-03-29T23:14:25.327Z,17.53
2019-03-29T23:16:52.995Z,20.80
2019-03-29T23:19:21.718Z,16.70
2019-03-29T23:21:49.347Z,15.90
2019-03-29T23:24:19.256Z,26.67
2019-03-29T23:26:47.187Z,21.17
2019-03-29T23:29:14.949Z,11.27
2019-03-29T23:31:42.543Z,11.93
2019-03-29T23:34:10.187Z,19.47
2019-03-29T23:36:37.794Z,18.10
2019-03-29T23:39:05.803Z,18.67
2019-03-29T23:41:33.454Z,17.23
2019-03-29T23:44:01.063Z,22.63
2019-03-29T23:46:28.656Z,25.27
2019-03-29T23:48:56.301Z,26.33
2019-03-29T23:51:23.925Z,23.87
2019-03-29T23:53:51.507Z,24.90
2019-03-29T23:56:19.165Z,29.23
2019-03-29T23:58:46.769Z,20.43
